Passadumkeag, Maine
Current Conditions -  °F | °C
As of 7:53 PM on Tuesday 25 Nov 2014 (Local Time) from KBGR Reporting Station
Scattered Clouds Scattered Clouds  
Wind Chill: 42°   Ceiling: Unl
Heat Index: 46°   Visibility: 10mi
Dew Point: 29°   Wind: 7mph
Humidity: 51%   Direction: 270°W
Pressure: 29.93"   Gusts: NA
Location:  45.19°N, 68.62°W
Report Text: KBGR 260053Z 27006KT 10SM SCT250 08/M02 A2993 RMK AO2 SLP135 T00781017
Loading
Personal Weather Stations






























Interactive Weather Map New forecast layout! Learn more

10-Day Weather Forecast

Advertisements
Track Severe Weather on mobile